Time;durP1;ratioP1;P1;durP2;ratioP2;P2;SDS_P1;SDS_P2;PMS_P1;PMS_P2;Temp;Humidity;BMP_temperature;BMP_pressure;BME280_temperature;BME280_humidity;BME280_pressure;Samples;Min_cycle;Max_cycle;Signal;HPM_P1;HPM_P2
2022/12/19 00:01:27;;;;;;;;;42.50;40.25;;;;;1.01;84.68;101658.34;5069610;28;11574;-66
2022/12/19 00:03:58;;;;;;;;;35.00;31.50;;;;;1.08;84.78;101650.81;5066688;28;11581;-66
2022/12/19 00:06:26;;;;;;;;;44.00;40.75;;;;;0.99;84.39;101634.63;5062263;28;11722;-65
2022/12/19 00:08:55;;;;;;;;;54.75;44.50;;;;;0.98;85.10;101624.13;5065736;28;11594;-63
2022/12/19 00:11:22;;;;;;;;;50.25;43.00;;;;;1.01;84.93;101634.50;5068463;28;11628;-64
2022/12/19 00:13:49;;;;;;;;;54.00;45.75;;;;;1.01;85.36;101628.34;5057762;28;11548;-63
2022/12/19 00:16:22;;;;;;;;;54.25;43.00;;;;;1.00;85.12;101632.81;5065354;28;11776;-66
2022/12/19 00:18:49;;;;;;;;;50.50;42.50;;;;;0.99;85.45;101653.19;5070201;28;11595;-65
2022/12/19 00:21:23;;;;;;;;;53.50;45.00;;;;;1.07;85.65;101651.78;5067454;28;11609;-66
2022/12/19 00:23:50;;;;;;;;;48.00;40.75;;;;;1.10;85.65;101635.66;5071871;28;11565;-64
2022/12/19 00:26:17;;;;;;;;;44.00;38.50;;;;;1.13;85.80;101625.63;5069439;28;11594;-66
2022/12/19 00:28:50;;;;;;;;;44.00;41.00;;;;;1.13;85.79;101630.09;5073064;28;11614;-64
2022/12/19 00:31:18;;;;;;;;;51.00;44.75;;;;;1.13;85.83;101622.97;5043193;28;11612;-65
2022/12/19 00:33:46;;;;;;;;;52.50;41.75;;;;;1.18;86.24;101620.84;5047027;28;11612;-64
2022/12/19 00:36:15;;;;;;;;;47.25;44.25;;;;;1.19;86.11;101622.53;5074938;28;12290;-65
2022/12/19 00:38:49;;;;;;;;;50.50;44.75;;;;;1.24;85.88;101616.88;5071675;28;11573;-65
2022/12/19 00:41:21;;;;;;;;;47.50;42.25;;;;;1.21;85.86;101617.09;5052356;28;11598;-64
2022/12/19 00:43:55;;;;;;;;;46.50;39.75;;;;;1.15;85.86;101599.03;5069139;28;11728;-66
2022/12/19 00:46:23;;;;;;;;;48.75;45.00;;;;;1.10;86.44;101579.97;5053011;28;11742;-64
2022/12/19 00:48:49;;;;;;;;;56.00;45.50;;;;;1.09;86.27;101576.44;5072388;28;11571;-65
2022/12/19 00:51:19;;;;;;;;;46.75;38.50;;;;;1.15;86.92;101593.72;5070161;28;11599;-64
2022/12/19 00:53:47;;;;;;;;;37.25;35.25;;;;;1.23;86.87;101580.72;5071370;28;11569;-62
2022/12/19 00:56:20;;;;;;;;;48.00;41.25;;;;;1.19;86.46;101587.22;5066830;28;11588;-64
2022/12/19 00:58:46;;;;;;;;;44.75;37.75;;;;;1.28;87.07;101575.06;5056021;28;11580;-63
2022/12/19 01:01:16;;;;;;;;;42.50;40.75;;;;;1.33;86.86;101572.91;5079221;28;11619;-65
2022/12/19 01:03:43;;;;;;;;;35.00;33.50;;;;;1.32;86.39;101561.47;5059109;28;11602;-64
2022/12/19 01:06:30;;;;;;;;;40.25;36.50;;;;;1.44;86.47;101564.97;5084733;28;11656;-65
2022/12/19 01:08:57;;;;;;;;;42.75;38.50;;;;;1.45;86.70;101567.50;5074956;28;11610;-66
2022/12/19 01:14:11;;;;;;;;;38.50;35.25;;;;;1.49;86.90;101568.13;5055195;28;12347;-66
2022/12/19 01:16:44;;;;;;;;;44.25;38.50;;;;;1.48;86.51;101561.97;5051976;28;11589;-64
2022/12/19 01:19:10;;;;;;;;;42.75;34.75;;;;;1.45;86.88;101548.94;5072138;28;12216;-64
2022/12/19 01:21:37;;;;;;;;;47.25;41.75;;;;;1.46;86.23;101542.69;5084184;28;11721;-65
2022/12/19 01:24:05;;;;;;;;;41.50;35.50;;;;;1.48;86.94;101524.00;5062021;28;11599;-65
2022/12/19 01:26:31;;;;;;;;;40.25;36.25;;;;;1.46;86.94;101531.25;5066301;28;11562;-65
2022/12/19 01:28:58;;;;;;;;;35.25;33.25;;;;;1.54;86.59;101541.25;5052440;28;11597;-65
2022/12/19 01:31:26;;;;;;;;;39.25;34.50;;;;;1.56;86.70;101537.50;5060116;28;11599;-65
2022/12/19 01:33:53;;;;;;;;;51.00;42.00;;;;;1.62;86.38;101538.84;5045480;28;11584;-66
2022/12/19 01:36:21;;;;;;;;;35.00;35.00;;;;;1.61;86.90;101534.50;5069749;28;11614;-65
2022/12/19 01:38:48;;;;;;;;;38.00;34.75;;;;;1.63;86.42;101532.59;5062357;28;11605;-66
2022/12/19 01:41:14;;;;;;;;;50.75;45.25;;;;;1.52;86.69;101525.44;5067282;28;11595;-65
2022/12/19 01:43:57;;;;;;;;;46.25;37.25;;;;;1.54;87.21;101515.56;5060794;28;11575;-63
2022/12/19 01:46:36;;;;;;;;;36.00;32.75;;;;;1.65;86.97;101502.28;5063752;28;11607;-66
2022/12/19 01:49:05;;;;;;;;;49.75;39.00;;;;;1.63;86.94;101503.41;5068972;28;11718;-64
2022/12/19 01:51:44;;;;;;;;;34.00;30.75;;;;;1.67;87.46;101478.31;5052053;28;11685;-63
2022/12/19 01:54:16;;;;;;;;;48.50;40.75;;;;;1.65;87.17;101490.84;5066967;28;11586;-64
2022/12/19 01:56:48;;;;;;;;;46.25;40.00;;;;;1.71;87.37;101483.25;5057561;28;11770;-64
2022/12/19 01:59:22;;;;;;;;;38.75;38.50;;;;;1.72;87.46;101482.28;5054990;28;12286;-65
2022/12/19 02:01:54;;;;;;;;;50.75;36.75;;;;;1.75;87.04;101485.66;5063517;28;11587;-65
2022/12/19 02:04:21;;;;;;;;;43.75;39.75;;;;;1.81;87.27;101483.34;5052417;28;11757;-65
2022/12/19 02:06:49;;;;;;;;;43.50;37.00;;;;;1.87;87.40;101471.41;5062179;28;11607;-63
2022/12/19 02:09:16;;;;;;;;;41.25;37.75;;;;;1.84;87.57;101477.81;5062689;28;11644;-63
2022/12/19 02:11:42;;;;;;;;;42.25;35.25;;;;;1.88;87.48;101473.09;5042720;28;13675;-62
2022/12/19 02:14:09;;;;;;;;;44.25;38.75;;;;;1.89;87.71;101472.13;5044165;28;11595;-65
2022/12/19 02:16:50;;;;;;;;;54.75;41.00;;;;;1.89;87.53;101472.13;5064300;28;11592;-64
2022/12/19 02:19:29;;;;;;;;;51.50;39.50;;;;;1.92;87.36;101467.41;5074152;28;11653;-62
2022/12/19 02:22:16;;;;;;;;;49.00;42.00;;;;;1.90;87.96;101461.38;5052497;28;11604;-64
2022/12/19 02:24:58;;;;;;;;;40.75;35.25;;;;;1.92;88.34;101463.94;5058508;28;11613;-63
2022/12/19 02:27:43;;;;;;;;;50.25;42.50;;;;;1.93;88.58;101455.00;5047315;28;11590;-64
2022/12/19 02:30:44;;;;;;;;;42.00;38.25;;;;;1.98;89.05;101448.34;5073496;28;12220;-65
2022/12/19 02:33:45;;;;;;;;;45.50;40.75;;;;;2.09;89.21;101433.34;5051320;28;11598;-63
2022/12/19 02:36:21;;;;;;;;;43.50;36.50;;;;;2.07;88.66;101422.03;5047208;28;11614;-64
2022/12/19 02:38:59;;;;;;;;;49.75;42.00;;;;;2.11;88.95;101418.16;5047496;28;11593;-65
2022/12/19 02:41:42;;;;;;;;;42.50;41.00;;;;;2.11;89.27;101419.00;5047470;28;11594;-65
2022/12/19 02:44:26;;;;;;;;;43.25;39.25;;;;;2.12;89.08;101419.84;5042836;28;11605;-65
2022/12/19 02:46:57;;;;;;;;;35.75;32.25;;;;;2.27;89.23;101415.06;5055277;28;11656;-63
2022/12/19 02:49:26;;;;;;;;;43.50;39.75;;;;;2.32;89.01;101402.25;5072998;28;11684;-63
2022/12/19 02:52:27;;;;;;;;;47.25;42.25;;;;;2.34;88.48;101408.28;5053832;28;12315;-66
2022/12/19 02:55:16;;;;;;;;;40.25;31.25;;;;;2.37;88.64;101406.22;5027026;28;11580;-66
2022/12/19 02:58:07;;;;;;;;;34.75;29.00;;;;;2.43;88.98;101399.53;5049728;28;11567;-65
2022/12/19 03:00:46;;;;;;;;;30.25;27.00;;;;;2.48;88.84;101411.47;5054033;28;11592;-66
2022/12/19 03:03:22;;;;;;;;;36.75;29.50;;;;;2.50;88.51;101403.38;5071280;28;11609;-64
2022/12/19 03:06:03;;;;;;;;;35.75;32.00;;;;;2.51;88.90;101405.03;5049726;28;12276;-65
2022/12/19 03:09:12;;;;;;;;;36.75;30.75;;;;;2.57;88.44;101395.75;5048972;28;11655;-65
2022/12/19 03:11:41;;;;;;;;;40.50;35.50;;;;;2.62;88.62;101404.16;5025144;28;11629;-65
2022/12/19 03:14:16;;;;;;;;;34.25;29.00;;;;;2.63;88.56;101406.72;5075522;28;11715;-62
2022/12/19 03:16:42;;;;;;;;;30.75;29.00;;;;;2.69;88.42;101406.19;5048279;28;11613;-64
2022/12/19 03:19:12;;;;;;;;;34.75;29.00;;;;;2.58;88.52;101398.25;5061867;28;11675;-64
2022/12/19 03:21:44;;;;;;;;;27.75;24.00;;;;;2.67;88.97;101399.28;5065722;28;11564;-65
2022/12/19 03:24:13;;;;;;;;;33.00;28.50;;;;;2.72;88.67;101391.78;5054095;28;11639;-64
2022/12/19 03:27:06;;;;;;;;;44.25;32.50;;;;;2.71;88.76;101404.25;5071208;28;11579;-65
2022/12/19 03:29:48;;;;;;;;;30.50;25.00;;;;;2.78;88.77;101393.09;5063812;28;11590;-64
2022/12/19 03:32:16;;;;;;;;;37.75;28.25;;;;;2.82;88.81;101387.38;5069326;28;11572;-64
2022/12/19 03:34:49;;;;;;;;;23.50;23.00;;;;;2.84;88.99;101382.78;5066279;28;11583;-65
2022/12/19 03:37:21;;;;;;;;;33.75;29.25;;;;;2.84;88.85;101381.94;5055650;28;11695;-64
2022/12/19 03:39:53;;;;;;;;;30.25;28.00;;;;;2.86;89.24;101369.34;5056714;28;11729;-64
2022/12/19 03:45:12;;;;;;;;;33.25;25.50;;;;;2.96;88.89;101365.78;5058493;28;11602;-64
2022/12/19 03:47:47;;;;;;;;;30.00;25.75;;;;;2.98;89.13;101363.81;5057606;28;11685;-64
2022/12/19 03:50:14;;;;;;;;;27.25;21.75;;;;;3.00;89.30;101366.34;5051082;28;11740;-64
2022/12/19 03:52:48;;;;;;;;;31.50;26.00;;;;;2.96;89.25;101367.59;5067675;28;11566;-63
2022/12/19 03:55:52;;;;;;;;;31.00;27.50;;;;;3.04;88.99;101361.59;5060301;28;11654;-62
2022/12/19 03:58:29;;;;;;;;;27.75;23.50;;;;;3.07;88.93;101361.34;5061204;28;11589;-63
2022/12/19 04:00:57;;;;;;;;;24.50;22.00;;;;;3.13;88.96;101358.16;5053921;28;11572;-66
2022/12/19 04:03:24;;;;;;;;;24.00;24.00;;;;;3.06;89.21;101354.34;5066713;28;11666;-62
2022/12/19 04:05:52;;;;;;;;;23.75;21.00;;;;;3.05;89.24;101348.19;5057840;28;11614;-61
2022/12/19 04:08:20;;;;;;;;;24.50;18.50;;;;;3.08;89.61;101336.41;5061794;28;11706;-64
2022/12/19 04:10:52;;;;;;;;;22.25;20.25;;;;;3.13;89.55;101350.19;5070383;28;11577;-65
2022/12/19 04:13:25;;;;;;;;;20.00;18.25;;;;;3.15;89.53;101354.38;5055665;28;11560;-65
2022/12/19 04:16:04;;;;;;;;;19.00;18.00;;;;;3.20;89.33;101352.16;5069426;28;11565;-66
2022/12/19 04:18:32;;;;;;;;;21.00;19.00;;;;;3.21;89.44;101347.69;5062014;28;12287;-65
2022/12/19 04:21:11;;;;;;;;;24.75;20.75;;;;;3.22;89.61;101347.53;5065900;28;11576;-64
2022/12/19 04:23:44;;;;;;;;;25.75;19.50;;;;;3.24;89.71;101342.06;5066905;28;12290;-65
2022/12/19 04:26:12;;;;;;;;;22.50;16.25;;;;;3.26;90.04;101329.50;5058146;28;11570;-66
2022/12/19 04:28:49;;;;;;;;;21.25;20.75;;;;;3.29;90.23;101331.91;5065319;28;11637;-66
2022/12/19 04:31:18;;;;;;;;;22.25;20.75;;;;;3.39;90.04;101343.41;5068802;28;11681;-63
2022/12/19 04:33:45;;;;;;;;;18.75;18.75;;;;;3.38;89.98;101317.78;5065047;28;11572;-64
2022/12/19 04:36:11;;;;;;;;;21.00;17.50;;;;;3.39;89.85;101337.22;5069211;28;11559;-64
2022/12/19 04:38:38;;;;;;;;;20.75;18.00;;;;;3.35;90.04;101334.00;5061591;28;11688;-66
2022/12/19 04:41:05;;;;;;;;;23.25;21.50;;;;;3.39;89.96;101331.91;5054702;28;11579;-63
2022/12/19 04:43:31;;;;;;;;;25.00;21.00;;;;;3.40;90.02;101336.25;5058611;28;11614;-63
2022/12/19 04:45:58;;;;;;;;;21.50;18.00;;;;;3.45;90.01;101337.53;5059503;28;11576;-65
2022/12/19 04:48:25;;;;;;;;;22.25;20.25;;;;;3.44;90.08;101333.22;5062534;28;11559;-64
2022/12/19 04:50:51;;;;;;;;;19.00;18.75;;;;;3.47;90.25;101332.91;5066687;28;11675;-65
2022/12/19 04:53:18;;;;;;;;;25.75;20.00;;;;;3.47;90.38;101342.72;5068613;28;11556;-65
2022/12/19 04:55:44;;;;;;;;;23.25;23.25;;;;;3.49;90.43;101339.94;5063889;28;11556;-66
2022/12/19 04:58:11;;;;;;;;;21.75;19.75;;;;;3.54;90.24;101337.72;5069927;28;11620;-66
2022/12/19 05:00:43;;;;;;;;;24.50;17.25;;;;;3.62;90.85;101337.88;5058940;28;11602;-66
2022/12/19 05:03:09;;;;;;;;;22.00;19.25;;;;;3.63;90.12;101342.19;5061376;28;11725;-65
2022/12/19 05:05:35;;;;;;;;;18.50;17.50;;;;;3.62;90.14;101330.72;5066871;28;11572;-65
2022/12/19 05:08:02;;;;;;;;;24.00;19.25;;;;;3.63;89.99;101321.75;5069721;28;11491;-66
2022/12/19 05:10:28;;;;;;;;;12.25;11.50;;;;;3.67;90.23;101327.63;5062888;28;12313;-65
2022/12/19 05:12:55;;;;;;;;;25.50;19.75;;;;;3.71;89.83;101323.72;5057688;28;11575;-65
2022/12/19 05:15:22;;;;;;;;;21.50;19.00;;;;;3.74;90.28;101320.78;5062540;28;11639;-64
2022/12/19 05:17:48;;;;;;;;;21.50;17.50;;;;;3.74;90.29;101320.78;5061661;28;12390;-66
2022/12/19 05:20:15;;;;;;;;;19.50;16.50;;;;;3.72;89.99;101312.09;5069924;28;11546;-65
2022/12/19 05:22:41;;;;;;;;;21.00;19.75;;;;;3.79;90.46;101309.72;5069498;28;11527;-66
2022/12/19 05:25:08;;;;;;;;;20.25;19.50;;;;;3.78;90.41;101313.38;5055283;28;11581;-66
2022/12/19 05:27:35;;;;;;;;;17.75;15.25;;;;;3.79;90.51;101309.72;5059657;28;11532;-66
2022/12/19 05:30:02;;;;;;;;;18.75;18.00;;;;;3.88;90.51;101309.72;5056059;28;11641;-66
2022/12/19 05:32:30;;;;;;;;;16.75;14.75;;;;;3.95;90.38;101315.34;5064297;28;11617;-66
2022/12/19 05:34:57;;;;;;;;;20.25;17.50;;;;;3.94;90.06;101311.84;5064324;28;11493;-65
2022/12/19 05:37:23;;;;;;;;;21.00;20.50;;;;;3.95;90.55;101310.84;5069856;28;11626;-66
2022/12/19 05:39:50;;;;;;;;;19.50;16.75;;;;;4.03;90.89;101317.31;5064915;28;11572;-65
2022/12/19 05:42:16;;;;;;;;;20.50;17.25;;;;;4.00;90.09;101328.22;5067398;28;11526;-65
2022/12/19 05:44:42;;;;;;;;;19.75;18.75;;;;;3.97;90.72;101324.03;5070046;28;11523;-64
2022/12/19 05:47:09;;;;;;;;;17.50;17.50;;;;;4.09;90.87;101322.06;5065446;28;11569;-63
2022/12/19 05:49:35;;;;;;;;;13.25;12.75;;;;;4.13;90.73;101315.47;5072518;28;11519;-65
2022/12/19 05:52:02;;;;;;;;;16.50;14.25;;;;;4.18;90.43;101319.41;5072850;28;12203;-65
2022/12/19 05:54:28;;;;;;;;;19.25;18.25;;;;;4.22;90.33;101322.63;5051478;28;11505;-65
2022/12/19 05:56:55;;;;;;;;;16.50;12.00;;;;;4.25;90.51;101316.16;5066808;28;11580;-66
2022/12/19 05:59:21;;;;;;;;;17.00;14.25;;;;;4.28;90.42;101306.06;5066919;28;11518;-66
2022/12/19 06:01:48;;;;;;;;;18.75;17.75;;;;;4.25;90.96;101310.84;5058493;28;11549;-67
2022/12/19 06:04:14;;;;;;;;;19.00;18.00;;;;;4.27;90.66;101293.75;5063216;28;12246;-66
2022/12/19 06:06:41;;;;;;;;;16.25;16.25;;;;;4.40;91.17;101312.09;5059056;28;12914;-65
2022/12/19 06:09:07;;;;;;;;;22.50;18.25;;;;;4.46;91.00;101306.19;5057215;28;11506;-65
2022/12/19 06:11:34;;;;;;;;;20.00;17.75;;;;;4.44;90.98;101302.81;5062602;28;11545;-65
2022/12/19 06:14:00;;;;;;;;;22.25;18.75;;;;;4.53;90.52;101296.63;5058488;28;11546;-65
2022/12/19 06:16:27;;;;;;;;;15.75;15.75;;;;;4.60;91.12;101294.22;5059822;28;11507;-65
2022/12/19 06:18:53;;;;;;;;;18.50;18.25;;;;;4.67;91.27;101309.53;5053462;28;11683;-66
2022/12/19 06:21:21;;;;;;;;;22.75;18.50;;;;;4.71;90.46;101297.56;5059625;28;11483;-65
2022/12/19 06:23:48;;;;;;;;;24.50;18.75;;;;;4.72;90.35;101290.41;5065110;28;11604;-65
2022/12/19 06:26:16;;;;;;;;;20.25;20.00;;;;;4.70;90.41;101289.72;5058741;28;11513;-65
2022/12/19 06:28:46;;;;;;;;;16.75;15.75;;;;;4.76;91.29;101294.47;5066458;28;11500;-65
2022/12/19 06:31:14;;;;;;;;;16.25;14.50;;;;;4.84;90.59;101297.25;5056838;28;11671;-66
2022/12/19 06:33:40;;;;;;;;;19.50;17.50;;;;;4.85;90.30;101292.75;5058878;28;12269;-66
2022/12/19 06:36:13;;;;;;;;;17.00;17.00;;;;;4.86;90.50;101291.75;5058604;28;11552;-66
2022/12/19 06:38:39;;;;;;;;;24.00;21.75;;;;;4.94;90.63;101297.19;5058296;28;11564;-66
2022/12/19 06:43:51;;;;;;;;;17.50;17.00;;;;;4.99;90.67;101304.78;5059490;28;11543;-65
2022/12/19 06:46:19;;;;;;;;;22.25;21.00;;;;;5.00;90.88;101303.78;5065427;28;11573;-66
2022/12/19 06:48:46;;;;;;;;;25.00;22.00;;;;;5.00;90.57;101298.47;5067814;28;11573;-67
2022/12/19 06:51:12;;;;;;;;;19.50;16.50;;;;;5.08;91.04;101302.06;5060463;28;11554;-65
2022/12/19 06:53:39;;;;;;;;;15.75;15.75;;;;;5.15;91.28;101310.34;5059625;28;11689;-66
2022/12/19 06:56:06;;;;;;;;;23.00;20.25;;;;;5.15;90.45;101299.66;5061078;28;11587;-66
2022/12/19 06:58:33;;;;;;;;;28.50;23.75;;;;;5.15;90.15;101297.84;5050822;28;12289;-65
2022/12/19 07:01:00;;;;;;;;;23.25;23.00;;;;;5.17;90.84;101314.53;5063676;28;11555;-67
2022/12/19 07:03:36;;;;;;;;;19.50;17.25;;;;;5.26;91.19;101311.97;5063711;28;11505;-66
2022/12/19 07:06:03;;;;;;;;;16.25;15.00;;;;;5.31;90.98;101312.38;5062418;28;12232;-66
2022/12/19 07:08:30;;;;;;;;;23.50;18.00;;;;;5.30;90.93;101314.19;5057784;28;11550;-66
2022/12/19 07:10:57;;;;;;;;;21.50;18.00;;;;;5.30;90.65;101308.00;5060006;28;11505;-67
2022/12/19 07:13:24;;;;;;;;;23.00;22.25;;;;;5.27;91.30;101314.50;5060679;28;11531;-65
2022/12/19 07:15:52;;;;;;;;;30.00;23.50;;;;;5.33;91.31;101307.72;5063862;28;11612;-65
2022/12/19 07:18:19;;;;;;;;;22.75;22.25;;;;;5.28;92.26;101318.84;5059057;28;11613;-66
2022/12/19 07:20:45;;;;;;;;;16.00;15.75;;;;;5.40;92.78;101314.97;5058557;28;11501;-65
2022/12/19 07:23:17;;;;;;;;;27.25;22.75;;;;;5.41;92.08;101311.31;5062333;28;11555;-65
2022/12/19 07:25:43;;;;;;;;;26.00;23.25;;;;;5.43;92.97;101314.69;5054367;28;12285;-66
2022/12/19 07:28:10;;;;;;;;;27.00;20.50;;;;;5.55;92.51;101322.47;5061536;28;11645;-66
2022/12/19 07:30:37;;;;;;;;;25.25;21.25;;;;;5.53;92.29;101317.28;5058834;28;11604;-66
2022/12/19 07:33:03;;;;;;;;;23.00;21.25;;;;;5.58;92.49;101312.34;5054550;28;11643;-66
2022/12/19 07:35:30;;;;;;;;;20.25;19.00;;;;;5.63;92.11;101323.44;5055202;28;11634;-70
2022/12/19 07:38:04;;;;;;;;;29.50;27.50;;;;;5.61;91.67;101328.06;5054240;28;11540;-67
2022/12/19 07:40:32;;;;;;;;;20.00;16.50;;;;;5.70;92.76;101329.00;5049976;28;11656;-66
2022/12/19 07:42:59;;;;;;;;;23.75;21.00;;;;;5.77;92.62;101322.06;5064503;28;11503;-66
2022/12/19 07:45:26;;;;;;;;;17.25;17.25;;;;;5.81;92.92;101323.44;5068695;28;11525;-66
2022/12/19 07:47:53;;;;;;;;;21.25;20.75;;;;;5.83;92.34;101328.63;5065637;28;11558;-66
2022/12/19 07:50:19;;;;;;;;;20.75;19.50;;;;;5.82;91.84;101322.44;5068554;28;11580;-66
2022/12/19 07:52:46;;;;;;;;;20.75;20.75;;;;;5.76;91.69;101324.91;5063601;28;11528;-65
2022/12/19 07:55:12;;;;;;;;;22.50;20.50;;;;;5.75;91.76;101334.72;5060242;28;12430;-66
2022/12/19 07:57:39;;;;;;;;;19.00;17.75;;;;;5.84;91.83;101336.50;5068672;28;11523;-66
2022/12/19 08:00:06;;;;;;;;;23.25;21.00;;;;;5.85;91.97;101334.66;5067977;28;11647;-66
2022/12/19 08:02:37;;;;;;;;;16.50;16.00;;;;;5.85;91.31;101324.81;5059747;28;11521;-65
2022/12/19 08:05:04;;;;;;;;;22.25;19.50;;;;;5.83;91.37;101328.63;5056639;28;11685;-66
2022/12/19 08:07:31;;;;;;;;;21.00;20.25;;;;;5.83;91.34;101331.28;5069209;28;11618;-66
2022/12/19 08:09:58;;;;;;;;;19.50;18.00;;;;;5.79;91.66;101338.75;5061392;28;11482;-66
2022/12/19 08:12:25;;;;;;;;;23.25;21.50;;;;;5.82;91.30;101334.97;5064776;28;11558;-66
2022/12/19 08:14:52;;;;;;;;;19.75;18.00;;;;;5.83;90.92;101334.78;5069567;28;11493;-66
2022/12/19 08:17:22;;;;;;;;;22.75;21.50;;;;;5.80;91.53;101344.97;5065542;28;11499;-66
2022/12/19 08:19:49;;;;;;;;;21.75;19.75;;;;;5.79;91.52;101357.47;5071741;28;11538;-66
2022/12/19 08:22:15;;;;;;;;;20.75;20.25;;;;;5.84;91.62;101354.38;5070184;28;11526;-65
2022/12/19 08:24:42;;;;;;;;;18.00;16.75;;;;;5.83;91.35;101358.84;5067936;28;11499;-65
2022/12/19 08:27:08;;;;;;;;;23.75;22.50;;;;;5.85;91.61;101348.03;5068815;28;11574;-66
2022/12/19 08:29:35;;;;;;;;;21.50;19.00;;;;;5.88;91.55;101351.25;5050398;28;11634;-66
2022/12/19 08:32:01;;;;;;;;;19.25;17.25;;;;;5.87;91.61;101360.22;5053096;28;11528;-66
2022/12/19 08:34:27;;;;;;;;;22.75;19.00;;;;;5.87;91.71;101356.72;5072215;28;11530;-66
2022/12/19 08:36:54;;;;;;;;;25.50;21.00;;;;;5.90;91.39;101365.28;5070107;28;11588;-67
2022/12/19 08:39:20;;;;;;;;;16.75;15.25;;;;;5.93;91.90;101353.47;5071378;28;11502;-66
2022/12/19 08:41:47;;;;;;;;;21.25;17.50;;;;;5.90;91.62;101356.41;5072478;28;12230;-66
2022/12/19 08:44:14;;;;;;;;;16.50;15.50;;;;;5.97;92.26;101352.19;5057644;28;11547;-68
2022/12/19 08:46:40;;;;;;;;;21.25;21.25;;;;;5.97;91.29;101352.19;5069004;28;11647;-67
2022/12/19 08:49:15;;;;;;;;;26.50;19.00;;;;;5.92;92.18;101347.31;5069922;28;11532;-67
2022/12/19 08:51:41;;;;;;;;;19.25;17.00;;;;;5.97;91.64;101348.69;5070180;28;11607;-67
2022/12/19 08:54:08;;;;;;;;;20.25;19.50;;;;;5.97;92.43;101343.34;5061727;28;11553;-65
2022/12/19 08:56:38;;;;;;;;;20.75;19.75;;;;;6.02;92.42;101343.72;5067941;28;11479;-67
2022/12/19 08:59:13;;;;;;;;;19.00;18.00;;;;;6.01;91.84;101342.88;5073168;28;11497;-65
2022/12/19 09:01:49;;;;;;;;;20.50;16.00;;;;;6.05;91.62;101343.41;5070576;28;12317;-66
2022/12/19 09:04:16;;;;;;;;;25.50;17.25;;;;;5.99;91.82;101355.53;5081259;28;11504;-66
2022/12/19 09:07:02;;;;;;;;;18.00;14.75;;;;;5.99;92.54;101352.03;5070198;28;11492;-65
2022/12/19 09:09:29;;;;;;;;;16.75;16.75;;;;;6.04;92.75;101355.94;5049803;28;11497;-66
2022/12/19 09:11:55;;;;;;;;;19.50;16.75;;;;;6.07;92.47;101355.63;5055599;28;11620;-67
2022/12/19 09:14:22;;;;;;;;;17.75;14.50;;;;;6.04;92.48;101363.13;5072809;28;11562;-66
2022/12/19 09:16:48;;;;;;;;;17.00;16.00;;;;;6.11;93.01;101357.00;5073960;28;11526;-66
2022/12/19 09:19:15;;;;;;;;;17.25;17.25;;;;;6.15;92.79;101371.72;5091148;28;11498;-66
2022/12/19 09:21:42;;;;;;;;;22.00;18.50;;;;;6.11;92.64;101362.34;5077243;28;11522;-66
2022/12/19 09:24:09;;;;;;;;;21.75;20.00;;;;;6.12;92.99;101368.53;5069445;28;11541;-66
2022/12/19 09:26:38;;;;;;;;;21.00;18.75;;;;;6.11;93.17;101372.19;5077823;28;11501;-65
2022/12/19 09:29:05;;;;;;;;;19.75;18.00;;;;;6.19;92.75;101362.41;5091446;28;12235;-66
2022/12/19 09:31:46;;;;;;;;;17.00;14.75;;;;;6.21;92.84;101370.28;5073321;28;12268;-66
2022/12/19 09:34:15;;;;;;;;;19.00;15.75;;;;;6.28;92.40;101367.84;5073072;28;12312;-65
2022/12/19 09:36:41;;;;;;;;;18.00;17.00;;;;;6.27;92.47;101366.16;5073679;28;11634;-66
2022/12/19 09:39:09;;;;;;;;;17.75;15.00;;;;;6.22;92.42;101368.47;5073390;28;11478;-65
2022/12/19 09:42:15;;;;;;;;;20.00;17.75;;;;;6.22;92.48;101380.00;5065641;28;11522;-65
2022/12/19 09:44:51;;;;;;;;;20.75;18.50;;;;;6.19;93.11;101377.63;5085252;28;11479;-65
2022/12/19 09:47:23;;;;;;;;;18.50;15.00;;;;;6.26;92.74;101378.69;5080440;28;11615;-66
2022/12/19 09:49:52;;;;;;;;;20.50;18.25;;;;;6.26;92.83;101376.00;5079657;28;11476;-66
2022/12/19 09:52:37;;;;;;;;;17.50;16.00;;;;;6.35;92.79;101384.94;5077607;28;11550;-64
2022/12/19 09:55:15;;;;;;;;;17.00;14.75;;;;;6.36;93.33;101376.78;5073747;28;11486;-66
2022/12/19 09:57:54;;;;;;;;;17.50;15.50;;;;;6.36;92.46;101368.78;5055049;28;11573;-65
2022/12/19 10:00:21;;;;;;;;;13.00;12.75;;;;;6.40;92.76;101378.16;5069957;28;11575;-65
2022/12/19 10:03:03;;;;;;;;;20.75;18.00;;;;;6.38;92.48;101371.28;5080359;28;11492;-64
2022/12/19 10:05:44;;;;;;;;;15.00;15.00;;;;;6.43;92.14;101374.31;5072968;28;11504;-64
2022/12/19 10:08:38;;;;;;;;;20.75;17.75;;;;;6.39;91.93;101375.63;5089878;28;11483;-65
2022/12/19 10:11:36;;;;;;;;;17.00;17.00;;;;;6.39;92.17;101376.47;5075262;28;11477;-64
2022/12/19 10:14:38;;;;;;;;;15.25;13.50;;;;;6.37;92.53;101381.13;5066934;28;11561;-64
2022/12/19 10:17:24;;;;;;;;;16.50;15.00;;;;;6.44;92.75;101384.03;5071241;28;12211;-65
2022/12/19 10:19:53;;;;;;;;;24.75;20.50;;;;;6.38;92.63;101366.78;5069434;28;11582;-65
2022/12/19 10:22:44;;;;;;;;;16.50;16.50;;;;;6.44;93.22;101376.00;5072324;28;11516;-64
2022/12/19 10:25:21;;;;;;;;;15.00;13.00;;;;;6.53;92.73;101367.06;5067674;28;11514;-65
2022/12/19 10:28:00;;;;;;;;;14.25;13.25;;;;;6.60;92.47;101380.66;5060533;28;11521;-64
2022/12/19 10:30:31;;;;;;;;;18.50;16.50;;;;;6.59;92.57;101373.63;5069992;28;11494;-65
2022/12/19 10:33:22;;;;;;;;;21.50;18.75;;;;;6.55;92.53;101366.91;5069277;28;11502;-65
2022/12/19 10:35:55;;;;;;;;;15.75;13.50;;;;;6.56;92.60;101373.94;5071243;28;11591;-64
2022/12/19 10:38:42;;;;;;;;;16.00;13.75;;;;;6.58;93.43;101363.94;5064070;28;11590;-64
2022/12/19 10:41:26;;;;;;;;;18.00;18.00;;;;;6.58;93.29;101369.28;5057104;28;11533;-64
2022/12/19 10:44:06;;;;;;;;;19.50;13.75;;;;;6.69;92.89;101353.81;5071543;28;11500;-65
2022/12/19 10:46:48;;;;;;;;;13.50;12.50;;;;;6.74;93.55;101368.56;5034177;28;11513;-63
2022/12/19 10:49:15;;;;;;;;;14.00;12.75;;;;;6.76;92.53;101370.06;5063395;28;11477;-64
2022/12/19 10:52:11;;;;;;;;;16.50;14.00;;;;;6.77;92.59;101366.41;5070919;28;11550;-64
2022/12/19 10:54:42;;;;;;;;;15.00;15.00;;;;;6.71;93.30;101367.03;5048035;28;11214;-65
2022/12/19 10:57:21;;;;;;;;;19.25;15.00;;;;;6.72;92.50;101367.88;5067645;28;11293;-65
2022/12/19 11:00:13;;;;;;;;;12.00;12.00;;;;;6.83;93.17;101352.41;5071125;28;11272;-64
2022/12/19 11:02:44;;;;;;;;;16.50;14.50;;;;;6.94;92.88;101360.16;5070587;28;11100;-63
2022/12/19 11:05:40;;;;;;;;;16.50;13.00;;;;;6.85;92.39;101369.16;5070692;28;11513;-64
2022/12/19 11:08:06;;;;;;;;;16.00;12.75;;;;;6.85;92.40;101363.78;5069481;28;11489;-64
2022/12/19 11:10:38;;;;;;;;;16.00;16.00;;;;;6.84;92.71;101372.78;5069765;28;11522;-64
2022/12/19 11:13:27;;;;;;;;;18.75;13.75;;;;;6.81;92.81;101369.63;5064030;28;11619;-65
2022/12/19 11:16:21;;;;;;;;;14.00;13.50;;;;;6.85;92.48;101365.63;5070424;28;11189;-65
2022/12/19 11:19:27;;;;;;;;;18.25;16.50;;;;;6.87;93.48;101360.94;5068243;28;11187;-65
2022/12/19 11:22:19;;;;;;;;;17.50;15.25;;;;;6.96;92.93;101361.84;5066220;28;11156;-65
2022/12/19 11:25:14;;;;;;;;;14.50;14.25;;;;;6.99;92.38;101372.25;5062246;28;11544;-65
2022/12/19 11:28:10;;;;;;;;;15.00;13.50;;;;;6.95;92.17;101342.28;5065346;28;12134;-65
2022/12/19 11:31:02;;;;;;;;;12.75;11.75;;;;;7.06;91.67;101352.72;5063281;28;12004;-65
2022/12/19 11:34:13;;;;;;;;;16.00;14.50;;;;;7.05;91.81;101348.38;5063816;28;11517;-65
2022/12/19 11:36:56;;;;;;;;;14.75;13.50;;;;;7.06;91.47;101343.84;5069810;28;11168;-65
2022/12/19 11:39:47;;;;;;;;;12.50;12.50;;;;;7.02;91.85;101346.00;5065428;28;11636;-65
2022/12/19 11:42:28;;;;;;;;;14.50;11.50;;;;;7.05;91.98;101339.47;5067170;28;11938;-65
2022/12/19 11:45:18;;;;;;;;;11.50;11.50;;;;;7.11;91.55;101330.81;5063222;28;11198;-65
2022/12/19 11:47:53;;;;;;;;;14.75;14.00;;;;;7.15;91.42;101342.88;5067604;28;11245;-65
2022/12/19 11:50:48;;;;;;;;;21.75;17.75;;;;;7.10;91.37;101337.19;5062468;28;11366;-65